sensor_id;sensor_type;location;lat;lon;timestamp;pressure;altitude;pressure_sealevel;temperature;humidity
71361;BME280;59166;48.908;1.870;2023-12-20T00:01:20;100982.69;;;8.19;100.00
71361;BME280;59166;48.908;1.870;2023-12-20T00:06:20;100977.47;;;8.06;100.00
71361;BME280;59166;48.908;1.870;2023-12-20T00:11:22;100988.84;;;7.90;100.00
71361;BME280;59166;48.908;1.870;2023-12-20T00:16:23;100993.78;;;7.75;100.00
71361;BME280;59166;48.908;1.870;2023-12-20T00:21:24;100994.16;;;7.60;100.00
71361;BME280;59166;48.908;1.870;2023-12-20T00:26:26;100993.94;;;7.44;100.00
71361;BME280;59166;48.908;1.870;2023-12-20T00:31:26;100998.84;;;7.28;100.00
71361;BME280;59166;48.908;1.870;2023-12-20T00:36:27;101007.63;;;7.17;100.00
71361;BME280;59166;48.908;1.870;2023-12-20T00:41:29;100993.13;;;7.00;100.00
71361;BME280;59166;48.908;1.870;2023-12-20T00:46:29;101012.34;;;6.97;100.00
71361;BME280;59166;48.908;1.870;2023-12-20T00:51:30;101016.19;;;6.83;100.00
71361;BME280;59166;48.908;1.870;2023-12-20T00:56:32;101005.72;;;6.75;100.00
71361;BME280;59166;48.908;1.870;2023-12-20T01:01:32;101021.69;;;6.63;100.00
71361;BME280;59166;48.908;1.870;2023-12-20T01:06:33;101015.16;;;6.53;100.00
71361;BME280;59166;48.908;1.870;2023-12-20T01:11:35;101018.06;;;6.45;100.00
71361;BME280;59166;48.908;1.870;2023-12-20T01:16:36;101026.50;;;6.55;100.00
71361;BME280;59166;48.908;1.870;2023-12-20T01:21:36;101020.09;;;6.56;100.00
71361;BME280;59166;48.908;1.870;2023-12-20T01:26:38;101020.47;;;6.59;100.00
71361;BME280;59166;48.908;1.870;2023-12-20T01:31:39;101023.13;;;6.66;100.00
71361;BME280;59166;48.908;1.870;2023-12-20T01:36:40;101025.13;;;6.77;100.00
71361;BME280;59166;48.908;1.870;2023-12-20T01:41:42;101035.81;;;6.84;100.00
71361;BME280;59166;48.908;1.870;2023-12-20T01:46:42;101038.66;;;6.89;100.00
71361;BME280;59166;48.908;1.870;2023-12-20T01:51:43;101046.50;;;6.90;100.00
71361;BME280;59166;48.908;1.870;2023-12-20T01:56:45;101050.25;;;6.83;100.00
71361;BME280;59166;48.908;1.870;2023-12-20T02:01:46;101047.16;;;6.86;100.00
71361;BME280;59166;48.908;1.870;2023-12-20T02:06:48;101051.53;;;6.80;100.00
71361;BME280;59166;48.908;1.870;2023-12-20T02:11:51;101054.94;;;6.62;100.00
71361;BME280;59166;48.908;1.870;2023-12-20T02:16:52;101060.34;;;6.56;100.00
71361;BME280;59166;48.908;1.870;2023-12-20T02:22:07;101060.78;;;6.53;100.00
71361;BME280;59166;48.908;1.870;2023-12-20T02:27:08;101063.69;;;6.45;100.00
71361;BME280;59166;48.908;1.870;2023-12-20T02:32:08;101071.38;;;6.35;100.00
71361;BME280;59166;48.908;1.870;2023-12-20T02:37:10;101074.50;;;6.25;100.00
71361;BME280;59166;48.908;1.870;2023-12-20T02:42:11;101074.34;;;6.20;100.00
71361;BME280;59166;48.908;1.870;2023-12-20T02:47:11;101074.56;;;6.12;100.00
71361;BME280;59166;48.908;1.870;2023-12-20T02:52:13;101090.28;;;6.02;100.00
71361;BME280;59166;48.908;1.870;2023-12-20T02:57:14;101082.50;;;5.94;100.00
71361;BME280;59166;48.908;1.870;2023-12-20T03:02:14;101071.38;;;5.90;100.00
71361;BME280;59166;48.908;1.870;2023-12-20T03:07:16;101072.00;;;5.79;100.00
71361;BME280;59166;48.908;1.870;2023-12-20T03:12:17;101080.28;;;5.64;100.00
71361;BME280;59166;48.908;1.870;2023-12-20T03:17:17;101086.28;;;5.60;100.00
71361;BME280;59166;48.908;1.870;2023-12-20T03:22:19;101071.00;;;5.54;100.00
71361;BME280;59166;48.908;1.870;2023-12-20T03:27:20;101067.94;;;5.44;100.00
71361;BME280;59166;48.908;1.870;2023-12-20T03:32:21;101079.50;;;5.38;100.00
71361;BME280;59166;48.908;1.870;2023-12-20T03:37:23;101075.16;;;5.37;100.00
71361;BME280;59166;48.908;1.870;2023-12-20T03:42:24;101069.00;;;5.36;100.00
71361;BME280;59166;48.908;1.870;2023-12-20T03:47:24;101066.31;;;5.30;100.00
71361;BME280;59166;48.908;1.870;2023-12-20T03:52:26;101076.81;;;5.24;100.00
71361;BME280;59166;48.908;1.870;2023-12-20T03:57:27;101076.63;;;5.26;100.00
71361;BME280;59166;48.908;1.870;2023-12-20T04:02:28;101084.25;;;5.22;100.00
71361;BME280;59166;48.908;1.870;2023-12-20T04:07:30;101084.63;;;5.13;100.00
71361;BME280;59166;48.908;1.870;2023-12-20T04:12:30;101087.13;;;5.14;100.00
71361;BME280;59166;48.908;1.870;2023-12-20T04:17:31;101091.88;;;5.12;100.00
71361;BME280;59166;48.908;1.870;2023-12-20T04:22:33;101081.56;;;5.09;100.00
71361;BME280;59166;48.908;1.870;2023-12-20T04:27:34;101102.16;;;5.09;100.00
71361;BME280;59166;48.908;1.870;2023-12-20T04:32:34;101097.41;;;5.04;100.00
71361;BME280;59166;48.908;1.870;2023-12-20T04:37:36;101088.38;;;5.05;100.00
71361;BME280;59166;48.908;1.870;2023-12-20T04:42:37;101082.59;;;4.95;100.00
71361;BME280;59166;48.908;1.870;2023-12-20T04:47:37;101080.94;;;4.94;100.00
71361;BME280;59166;48.908;1.870;2023-12-20T04:52:39;101088.13;;;5.00;100.00
71361;BME280;59166;48.908;1.870;2023-12-20T04:57:40;101092.06;;;5.04;100.00
71361;BME280;59166;48.908;1.870;2023-12-20T05:02:41;101105.69;;;5.09;100.00
71361;BME280;59166;48.908;1.870;2023-12-20T05:07:43;101096.59;;;4.97;100.00
71361;BME280;59166;48.908;1.870;2023-12-20T05:12:43;101101.13;;;5.03;100.00
71361;BME280;59166;48.908;1.870;2023-12-20T05:17:44;101098.41;;;4.90;100.00
71361;BME280;59166;48.908;1.870;2023-12-20T05:22:46;101101.72;;;4.86;100.00
71361;BME280;59166;48.908;1.870;2023-12-20T05:27:46;101104.59;;;4.84;100.00
71361;BME280;59166;48.908;1.870;2023-12-20T05:32:47;101109.34;;;4.95;100.00
71361;BME280;59166;48.908;1.870;2023-12-20T05:37:49;101107.88;;;4.93;100.00
71361;BME280;59166;48.908;1.870;2023-12-20T05:42:50;101090.81;;;4.94;100.00
71361;BME280;59166;48.908;1.870;2023-12-20T05:47:52;101107.28;;;4.84;100.00
71361;BME280;59166;48.908;1.870;2023-12-20T05:52:54;101114.88;;;4.74;100.00
71361;BME280;59166;48.908;1.870;2023-12-20T05:57:55;101114.03;;;4.67;100.00
71361;BME280;59166;48.908;1.870;2023-12-20T06:02:56;101121.84;;;4.55;100.00
71361;BME280;59166;48.908;1.870;2023-12-20T06:07:58;101127.94;;;4.43;100.00
71361;BME280;59166;48.908;1.870;2023-12-20T06:12:58;101137.00;;;4.42;100.00
71361;BME280;59166;48.908;1.870;2023-12-20T06:17:59;101128.13;;;4.35;100.00
71361;BME280;59166;48.908;1.870;2023-12-20T06:23:01;101129.53;;;4.31;100.00
71361;BME280;59166;48.908;1.870;2023-12-20T06:28:01;101140.25;;;4.31;100.00
71361;BME280;59166;48.908;1.870;2023-12-20T06:33:02;101134.91;;;4.31;100.00
71361;BME280;59166;48.908;1.870;2023-12-20T06:38:04;101128.91;;;4.29;100.00
71361;BME280;59166;48.908;1.870;2023-12-20T06:43:05;101135.06;;;4.22;100.00
71361;BME280;59166;48.908;1.870;2023-12-20T06:48:06;101146.97;;;4.20;100.00
71361;BME280;59166;48.908;1.870;2023-12-20T06:53:08;101141.66;;;4.27;100.00
71361;BME280;59166;48.908;1.870;2023-12-20T06:58:08;101145.75;;;4.22;100.00
71361;BME280;59166;48.908;1.870;2023-12-20T07:03:09;101139.13;;;4.18;100.00
71361;BME280;59166;48.908;1.870;2023-12-20T07:08:11;101138.00;;;4.34;100.00
71361;BME280;59166;48.908;1.870;2023-12-20T07:13:12;101142.91;;;4.31;100.00
71361;BME280;59166;48.908;1.870;2023-12-20T07:18:13;101144.13;;;4.22;100.00
71361;BME280;59166;48.908;1.870;2023-12-20T07:23:15;101162.19;;;4.19;100.00
71361;BME280;59166;48.908;1.870;2023-12-20T07:28:15;101163.59;;;4.15;100.00
71361;BME280;59166;48.908;1.870;2023-12-20T07:33:16;101160.78;;;4.24;100.00
71361;BME280;59166;48.908;1.870;2023-12-20T07:38:18;101155.19;;;4.18;100.00
71361;BME280;59166;48.908;1.870;2023-12-20T07:43:19;101167.81;;;4.31;100.00
71361;BME280;59166;48.908;1.870;2023-12-20T07:48:19;101161.81;;;4.29;100.00
71361;BME280;59166;48.908;1.870;2023-12-20T07:53:21;101178.16;;;4.41;100.00
71361;BME280;59166;48.908;1.870;2023-12-20T07:58:22;101171.13;;;4.40;100.00
71361;BME280;59166;48.908;1.870;2023-12-20T08:03:22;101163.91;;;4.34;100.00
71361;BME280;59166;48.908;1.870;2023-12-20T08:08:24;101163.31;;;4.32;100.00
71361;BME280;59166;48.908;1.870;2023-12-20T08:13:25;101196.38;;;4.65;100.00
71361;BME280;59166;48.908;1.870;2023-12-20T08:18:26;101188.97;;;4.73;100.00
71361;BME280;59166;48.908;1.870;2023-12-20T08:23:28;101171.25;;;4.72;100.00
71361;BME280;59166;48.908;1.870;2023-12-20T08:28:28;101158.47;;;4.61;100.00
71361;BME280;59166;48.908;1.870;2023-12-20T08:33:29;101160.00;;;4.90;100.00
71361;BME280;59166;48.908;1.870;2023-12-20T08:38:31;101164.94;;;4.93;100.00
71361;BME280;59166;48.908;1.870;2023-12-20T08:43:32;101165.78;;;4.94;100.00
71361;BME280;59166;48.908;1.870;2023-12-20T08:48:32;101162.72;;;5.10;100.00
71361;BME280;59166;48.908;1.870;2023-12-20T08:53:34;101167.47;;;5.28;100.00
71361;BME280;59166;48.908;1.870;2023-12-20T08:58:35;101169.97;;;5.42;100.00
71361;BME280;59166;48.908;1.870;2023-12-20T09:03:35;101177.41;;;5.53;100.00
71361;BME280;59166;48.908;1.870;2023-12-20T09:08:37;101184.81;;;5.51;100.00
71361;BME280;59166;48.908;1.870;2023-12-20T09:13:38;101177.19;;;5.55;100.00
71361;BME280;59166;48.908;1.870;2023-12-20T09:18:38;101167.69;;;5.65;100.00
71361;BME280;59166;48.908;1.870;2023-12-20T09:23:40;101168.53;;;5.66;100.00
71361;BME280;59166;48.908;1.870;2023-12-20T09:28:41;101162.56;;;5.77;100.00
71361;BME280;59166;48.908;1.870;2023-12-20T09:33:42;101166.25;;;5.83;100.00
71361;BME280;59166;48.908;1.870;2023-12-20T09:38:43;101163.94;;;6.06;100.00
71361;BME280;59166;48.908;1.870;2023-12-20T09:43:44;101180.16;;;6.37;100.00
71361;BME280;59166;48.908;1.870;2023-12-20T09:48:45;101170.59;;;6.61;100.00
71361;BME280;59166;48.908;1.870;2023-12-20T09:53:47;101172.56;;;6.78;100.00
71361;BME280;59166;48.908;1.870;2023-12-20T09:58:49;101168.50;;;7.07;100.00
71361;BME280;59166;48.908;1.870;2023-12-20T10:03:51;101168.28;;;7.09;100.00
71361;BME280;59166;48.908;1.870;2023-12-20T10:08:56;101176.50;;;7.14;100.00
71361;BME280;59166;48.908;1.870;2023-12-20T10:13:59;101172.31;;;7.24;100.00
71361;BME280;59166;48.908;1.870;2023-12-20T10:19:00;101172.81;;;7.40;100.00
71361;BME280;59166;48.908;1.870;2023-12-20T10:24:02;101155.66;;;7.41;100.00
71361;BME280;59166;48.908;1.870;2023-12-20T10:29:05;101157.81;;;7.32;100.00
71361;BME280;59166;48.908;1.870;2023-12-20T10:34:05;101163.63;;;7.22;100.00
71361;BME280;59166;48.908;1.870;2023-12-20T10:39:08;101167.09;;;7.29;100.00
71361;BME280;59166;48.908;1.870;2023-12-20T10:44:11;101171.34;;;7.44;100.00
71361;BME280;59166;48.908;1.870;2023-12-20T10:49:13;101148.31;;;7.54;100.00
71361;BME280;59166;48.908;1.870;2023-12-20T10:54:16;101140.22;;;7.79;100.00
71361;BME280;59166;48.908;1.870;2023-12-20T10:59:19;101122.09;;;7.93;100.00
71361;BME280;59166;48.908;1.870;2023-12-20T11:04:24;101120.97;;;8.18;100.00
71361;BME280;59166;48.908;1.870;2023-12-20T11:09:33;101128.97;;;8.25;100.00
71361;BME280;59166;48.908;1.870;2023-12-20T11:14:41;101113.94;;;8.36;100.00
71361;BME280;59166;48.908;1.870;2023-12-20T11:20:09;101114.69;;;8.43;100.00
71361;BME280;59166;48.908;1.870;2023-12-20T11:25:11;101097.94;;;8.70;100.00
71361;BME280;59166;48.908;1.870;2023-12-20T11:30:14;101096.41;;;8.93;100.00
71361;BME280;59166;48.908;1.870;2023-12-20T11:35:18;101102.47;;;9.18;100.00
71361;BME280;59166;48.908;1.870;2023-12-20T11:40:23;101085.78;;;9.09;100.00
71361;BME280;59166;48.908;1.870;2023-12-20T11:45:24;101067.84;;;9.03;100.00
71361;BME280;59166;48.908;1.870;2023-12-20T11:50:25;101063.59;;;8.96;100.00
71361;BME280;59166;48.908;1.870;2023-12-20T11:55:27;101077.19;;;8.89;100.00
71361;BME280;59166;48.908;1.870;2023-12-20T12:00:28;101071.19;;;8.87;100.00
71361;BME280;59166;48.908;1.870;2023-12-20T12:05:30;101075.38;;;8.83;100.00
71361;BME280;59166;48.908;1.870;2023-12-20T12:10:32;101091.53;;;8.83;100.00
71361;BME280;59166;48.908;1.870;2023-12-20T12:15:33;101077.56;;;8.74;100.00
71361;BME280;59166;48.908;1.870;2023-12-20T12:20:34;101068.47;;;8.87;100.00
71361;BME280;59166;48.908;1.870;2023-12-20T12:25:36;101069.34;;;8.99;100.00
71361;BME280;59166;48.908;1.870;2023-12-20T12:30:37;101063.03;;;9.05;100.00
71361;BME280;59166;48.908;1.870;2023-12-20T12:35:44;101056.38;;;9.19;100.00
71361;BME280;59166;48.908;1.870;2023-12-20T12:40:51;101043.50;;;9.33;100.00
71361;BME280;59166;48.908;1.870;2023-12-20T12:46:02;101023.94;;;9.38;100.00
71361;BME280;59166;48.908;1.870;2023-12-20T12:51:03;101015.59;;;9.39;100.00
71361;BME280;59166;48.908;1.870;2023-12-20T12:56:25;101017.84;;;9.30;100.00
71361;BME280;59166;48.908;1.870;2023-12-20T13:01:50;101012.78;;;9.22;100.00
71361;BME280;59166;48.908;1.870;2023-12-20T13:07:02;101005.16;;;9.43;100.00
71361;BME280;59166;48.908;1.870;2023-12-20T13:17:58;100985.13;;;9.90;100.00
71361;BME280;59166;48.908;1.870;2023-12-20T13:23:02;100982.34;;;10.13;100.00
71361;BME280;59166;48.908;1.870;2023-12-20T13:28:32;100963.94;;;10.10;100.00
71361;BME280;59166;48.908;1.870;2023-12-20T13:34:05;100962.28;;;9.93;100.00
71361;BME280;59166;48.908;1.870;2023-12-20T13:39:44;100949.56;;;9.65;100.00
71361;BME280;59166;48.908;1.870;2023-12-20T13:44:53;100933.50;;;9.58;100.00
71361;BME280;59166;48.908;1.870;2023-12-20T13:50:09;100927.06;;;9.48;100.00
71361;BME280;59166;48.908;1.870;2023-12-20T13:55:19;100924.38;;;9.48;100.00
71361;BME280;59166;48.908;1.870;2023-12-20T14:05:56;100888.50;;;9.36;100.00
71361;BME280;59166;48.908;1.870;2023-12-20T14:11:03;100875.63;;;9.38;100.00
71361;BME280;59166;48.908;1.870;2023-12-20T14:21:46;100876.25;;;9.68;100.00
71361;BME280;59166;48.908;1.870;2023-12-20T14:27:09;100880.44;;;9.75;100.00
71361;BME280;59166;48.908;1.870;2023-12-20T14:38:06;100850.66;;;9.70;100.00
71361;BME280;59166;48.908;1.870;2023-12-20T14:43:13;100852.44;;;9.65;100.00
71361;BME280;59166;48.908;1.870;2023-12-20T14:48:25;100859.00;;;9.69;100.00
71361;BME280;59166;48.908;1.870;2023-12-20T14:53:28;100854.66;;;9.68;100.00
71361;BME280;59166;48.908;1.870;2023-12-20T14:58:28;100859.00;;;9.69;100.00
71361;BME280;59166;48.908;1.870;2023-12-20T15:03:29;100862.91;;;9.61;100.00
71361;BME280;59166;48.908;1.870;2023-12-20T15:08:31;100865.97;;;9.53;100.00
71361;BME280;59166;48.908;1.870;2023-12-20T15:13:32;100872.19;;;9.54;100.00
71361;BME280;59166;48.908;1.870;2023-12-20T15:18:33;100871.16;;;9.43;100.00
71361;BME280;59166;48.908;1.870;2023-12-20T15:23:35;100865.28;;;9.46;100.00
71361;BME280;59166;48.908;1.870;2023-12-20T15:28:35;100873.63;;;9.45;100.00
71361;BME280;59166;48.908;1.870;2023-12-20T15:33:36;100891.06;;;9.42;100.00
71361;BME280;59166;48.908;1.870;2023-12-20T15:38:38;100872.00;;;9.32;100.00
71361;BME280;59166;48.908;1.870;2023-12-20T15:43:39;100870.38;;;9.19;100.00
71361;BME280;59166;48.908;1.870;2023-12-20T15:48:39;100872.63;;;9.11;100.00
71361;BME280;59166;48.908;1.870;2023-12-20T15:53:41;100874.50;;;9.10;100.00
71361;BME280;59166;48.908;1.870;2023-12-20T15:58:42;100876.03;;;9.06;100.00
71361;BME280;59166;48.908;1.870;2023-12-20T16:03:42;100873.13;;;9.08;100.00
71361;BME280;59166;48.908;1.870;2023-12-20T16:08:44;100865.81;;;9.08;100.00
71361;BME280;59166;48.908;1.870;2023-12-20T16:13:45;100861.13;;;9.15;100.00
71361;BME280;59166;48.908;1.870;2023-12-20T16:18:46;100856.47;;;9.11;100.00
71361;BME280;59166;48.908;1.870;2023-12-20T16:23:48;100846.25;;;9.13;100.00
71361;BME280;59166;48.908;1.870;2023-12-20T16:28:48;100833.59;;;9.13;100.00
71361;BME280;59166;48.908;1.870;2023-12-20T16:33:49;100819.78;;;9.21;100.00
71361;BME280;59166;48.908;1.870;2023-12-20T16:38:51;100805.94;;;9.18;100.00
71361;BME280;59166;48.908;1.870;2023-12-20T16:43:51;100800.34;;;9.08;100.00
71361;BME280;59166;48.908;1.870;2023-12-20T16:48:52;100802.50;;;8.94;100.00
71361;BME280;59166;48.908;1.870;2023-12-20T16:53:54;100796.97;;;9.01;100.00
71361;BME280;59166;48.908;1.870;2023-12-20T16:58:55;100795.88;;;9.02;100.00
71361;BME280;59166;48.908;1.870;2023-12-20T17:03:55;100784.88;;;9.03;100.00
71361;BME280;59166;48.908;1.870;2023-12-20T17:08:57;100790.41;;;8.97;100.00
71361;BME280;59166;48.908;1.870;2023-12-20T17:13:58;100800.72;;;9.00;100.00
71361;BME280;59166;48.908;1.870;2023-12-20T17:18:58;100799.06;;;9.10;100.00
71361;BME280;59166;48.908;1.870;2023-12-20T17:24:00;100798.00;;;9.11;100.00
71361;BME280;59166;48.908;1.870;2023-12-20T17:29:01;100801.50;;;9.12;100.00
71361;BME280;59166;48.908;1.870;2023-12-20T17:34:01;100797.41;;;9.09;100.00
71361;BME280;59166;48.908;1.870;2023-12-20T17:39:03;100792.00;;;9.09;100.00
71361;BME280;59166;48.908;1.870;2023-12-20T17:44:04;100792.00;;;9.09;100.00
71361;BME280;59166;48.908;1.870;2023-12-20T17:49:04;100784.53;;;9.11;100.00
71361;BME280;59166;48.908;1.870;2023-12-20T17:54:06;100788.00;;;9.12;100.00
71361;BME280;59166;48.908;1.870;2023-12-20T17:59:07;100792.97;;;9.15;100.00
71361;BME280;59166;48.908;1.870;2023-12-20T18:04:08;100789.44;;;9.14;100.00
71361;BME280;59166;48.908;1.870;2023-12-20T18:09:09;100806.66;;;9.13;100.00
71361;BME280;59166;48.908;1.870;2023-12-20T18:14:10;100801.34;;;9.18;100.00
71361;BME280;59166;48.908;1.870;2023-12-20T18:19:11;100790.81;;;9.17;100.00
71361;BME280;59166;48.908;1.870;2023-12-20T18:24:13;100782.63;;;9.12;100.00
71361;BME280;59166;48.908;1.870;2023-12-20T18:29:13;100776.78;;;9.15;100.00
71361;BME280;59166;48.908;1.870;2023-12-20T18:34:14;100773.97;;;9.10;100.00
71361;BME280;59166;48.908;1.870;2023-12-20T18:39:16;100783.94;;;9.09;100.00
71361;BME280;59166;48.908;1.870;2023-12-20T18:44:16;100778.66;;;9.14;100.00
71361;BME280;59166;48.908;1.870;2023-12-20T18:49:17;100776.31;;;9.06;100.00
71361;BME280;59166;48.908;1.870;2023-12-20T18:54:19;100774.53;;;9.12;100.00
71361;BME280;59166;48.908;1.870;2023-12-20T18:59:20;100756.06;;;9.04;100.00
71361;BME280;59166;48.908;1.870;2023-12-20T19:04:20;100758.97;;;9.14;100.00
71361;BME280;59166;48.908;1.870;2023-12-20T19:09:22;100760.06;;;9.01;100.00
71361;BME280;59166;48.908;1.870;2023-12-20T19:14:23;100747.50;;;9.07;100.00
71361;BME280;59166;48.908;1.870;2023-12-20T19:19:24;100741.28;;;9.06;100.00
71361;BME280;59166;48.908;1.870;2023-12-20T19:24:26;100731.91;;;9.09;100.00
71361;BME280;59166;48.908;1.870;2023-12-20T19:29:26;100719.88;;;9.00;100.00
71361;BME280;59166;48.908;1.870;2023-12-20T19:34:27;100725.03;;;9.01;100.00
71361;BME280;59166;48.908;1.870;2023-12-20T19:39:29;100723.97;;;9.02;100.00
71361;BME280;59166;48.908;1.870;2023-12-20T19:44:29;100702.19;;;8.92;100.00
71361;BME280;59166;48.908;1.870;2023-12-20T19:49:30;100691.75;;;8.96;100.00
71361;BME280;59166;48.908;1.870;2023-12-20T19:54:32;100696.66;;;8.99;100.00
71361;BME280;59166;48.908;1.870;2023-12-20T19:59:33;100693.16;;;8.98;100.00
71361;BME280;59166;48.908;1.870;2023-12-20T20:04:33;100690.03;;;8.90;100.00
71361;BME280;59166;48.908;1.870;2023-12-20T20:09:35;100681.13;;;8.89;100.00
71361;BME280;59166;48.908;1.870;2023-12-20T20:14:36;100695.06;;;8.98;100.00
71361;BME280;59166;48.908;1.870;2023-12-20T20:19:37;100680.41;;;8.94;100.00
71361;BME280;59166;48.908;1.870;2023-12-20T20:24:39;100687.13;;;8.91;100.00
71361;BME280;59166;48.908;1.870;2023-12-20T20:29:39;100684.28;;;8.98;100.00
71361;BME280;59166;48.908;1.870;2023-12-20T20:34:40;100671.72;;;9.03;100.00
71361;BME280;59166;48.908;1.870;2023-12-20T20:39:42;100665.84;;;9.06;100.00
71361;BME280;59166;48.908;1.870;2023-12-20T20:44:42;100675.56;;;9.07;100.00
71361;BME280;59166;48.908;1.870;2023-12-20T20:49:43;100659.88;;;9.04;100.00
71361;BME280;59166;48.908;1.870;2023-12-20T20:54:45;100647.69;;;9.02;100.00
71361;BME280;59166;48.908;1.870;2023-12-20T20:59:46;100638.88;;;9.06;100.00
71361;BME280;59166;48.908;1.870;2023-12-20T21:04:48;100647.22;;;9.05;100.00
71361;BME280;59166;48.908;1.870;2023-12-20T21:09:50;100653.75;;;9.09;100.00
71361;BME280;59166;48.908;1.870;2023-12-20T21:14:51;100675.63;;;9.12;100.00
71361;BME280;59166;48.908;1.870;2023-12-20T21:19:52;100651.72;;;9.16;100.00
71361;BME280;59166;48.908;1.870;2023-12-20T21:24:54;100636.63;;;9.15;100.00
71361;BME280;59166;48.908;1.870;2023-12-20T21:29:54;100631.47;;;9.13;100.00
71361;BME280;59166;48.908;1.870;2023-12-20T21:34:55;100620.31;;;9.21;100.00
71361;BME280;59166;48.908;1.870;2023-12-20T21:39:57;100600.84;;;9.19;100.00
71361;BME280;59166;48.908;1.870;2023-12-20T21:44:58;100590.38;;;9.23;100.00
71361;BME280;59166;48.908;1.870;2023-12-20T21:49:59;100598.25;;;9.24;100.00
71361;BME280;59166;48.908;1.870;2023-12-20T21:55:01;100598.56;;;9.28;100.00
71361;BME280;59166;48.908;1.870;2023-12-20T22:00:02;100594.47;;;9.25;100.00
71361;BME280;59166;48.908;1.870;2023-12-20T22:05:03;100575.03;;;9.23;100.00
71361;BME280;59166;48.908;1.870;2023-12-20T22:10:07;100572.91;;;9.25;100.00
71361;BME280;59166;48.908;1.870;2023-12-20T22:15:09;100568.66;;;9.29;100.00
71361;BME280;59166;48.908;1.870;2023-12-20T22:20:10;100564.41;;;9.33;100.00
71361;BME280;59166;48.908;1.870;2023-12-20T22:25:12;100555.44;;;9.28;100.00
71361;BME280;59166;48.908;1.870;2023-12-20T22:30:13;100558.16;;;9.28;100.00
71361;BME280;59166;48.908;1.870;2023-12-20T22:35:14;100556.28;;;9.28;100.00
71361;BME280;59166;48.908;1.870;2023-12-20T22:40:16;100540.88;;;9.29;100.00
71361;BME280;59166;48.908;1.870;2023-12-20T22:45:17;100533.88;;;9.28;100.00
71361;BME280;59166;48.908;1.870;2023-12-20T22:50:18;100537.63;;;9.27;100.00
71361;BME280;59166;48.908;1.870;2023-12-20T22:55:20;100529.78;;;9.25;100.00
71361;BME280;59166;48.908;1.870;2023-12-20T23:00:21;100524.06;;;9.22;100.00
71361;BME280;59166;48.908;1.870;2023-12-20T23:05:21;100533.56;;;9.24;100.00
71361;BME280;59166;48.908;1.870;2023-12-20T23:10:23;100539.13;;;9.18;100.00
71361;BME280;59166;48.908;1.870;2023-12-20T23:15:24;100542.88;;;9.17;100.00
71361;BME280;59166;48.908;1.870;2023-12-20T23:20:25;100528.00;;;9.14;100.00
71361;BME280;59166;48.908;1.870;2023-12-20T23:25:27;100520.66;;;9.10;100.00
71361;BME280;59166;48.908;1.870;2023-12-20T23:30:27;100504.16;;;9.06;100.00
71361;BME280;59166;48.908;1.870;2023-12-20T23:35:28;100487.47;;;9.09;100.00
71361;BME280;59166;48.908;1.870;2023-12-20T23:40:30;100508.22;;;9.09;100.00
71361;BME280;59166;48.908;1.870;2023-12-20T23:45:30;100465.38;;;9.07;100.00
71361;BME280;59166;48.908;1.870;2023-12-20T23:50:31;100465.94;;;9.09;100.00
71361;BME280;59166;48.908;1.870;2023-12-20T23:55:33;100481.22;;;9.04;100.00
